Time;durP1;ratioP1;P1;durP2;ratioP2;P2;SDS_P1;SDS_P2;PMS_P1;PMS_P2;Temp;Humidity;BMP_temperature;BMP_pressure;BME280_temperature;BME280_humidity;BME280_pressure;Samples;Min_cycle;Max_cycle;Signal;HPM_P1;HPM_P2
2023/10/14 00:09:44;;;;;;;0.63;0.40;;;;;;;25.01;44.46;101358.38;21172447;28;20036;-63
2023/10/14 00:19:55;;;;;;;0.43;0.43;;;;;;;25.01;44.63;101368.75;21171694;28;20108;-63
2023/10/14 00:30:09;;;;;;;0.70;0.43;;;;;;;25.04;44.63;101387.78;21171781;28;20371;-63
2023/10/14 00:40:22;;;;;;;0.70;0.70;;;;;;;25.00;44.73;101381.91;21170879;28;20040;-61
2023/10/14 01:00:37;;;;;;;0.63;0.63;;;;;;;25.02;44.65;101418.03;21169176;28;20028;-64
2023/10/14 01:10:39;;;;;;;0.98;0.70;;;;;;;25.02;44.45;101423.66;21166371;28;20055;-63
2023/10/14 01:20:44;;;;;;;0.50;0.50;;;;;;;24.99;44.55;101433.47;21166378;28;20088;-63
2023/10/14 01:31:33;;;;;;;0.52;0.50;;;;;;;24.96;44.71;101433.22;21166088;27;20043;-62
2023/10/14 01:41:35;;;;;;;;;;;;;;;25.01;44.78;101444.34;21165533;28;20483;-62
2023/10/14 01:51:38;;;;;;;0.68;0.68;;;;;;;25.05;44.44;101443.47;21164366;28;20427;-62
2023/10/14 02:01:41;;;;;;;0.60;0.60;;;;;;;25.02;44.55;101451.66;21163193;28;20032;-62
2023/10/14 02:11:47;;;;;;;0.88;0.50;;;;;;;24.91;44.43;101427.66;21161781;28;20069;-63
2023/10/14 02:21:57;;;;;;;0.68;0.60;;;;;;;25.00;44.56;101439.91;21161676;28;20048;-62
2023/10/14 02:32:00;;;;;;;0.93;0.60;;;;;;;24.98;44.65;101419.78;21161989;28;20038;-64
2023/10/14 02:52:11;;;;;;;0.95;0.82;;;;;;;24.91;44.49;101400.50;21160856;28;20019;-64
2023/10/14 03:02:24;;;;;;;0.55;0.55;;;;;;;24.98;44.48;101409.41;21160198;28;20039;-62
2023/10/14 03:12:26;;;;;;;0.50;0.50;;;;;;;24.98;44.66;101411.38;21159918;28;20077;-63
2023/10/14 03:22:31;;;;;;;0.65;0.50;;;;;;;24.94;44.51;101391.53;21166845;28;20055;-63
2023/10/14 03:32:36;;;;;;;0.45;0.45;;;;;;;24.94;44.58;101376.69;21175792;28;20088;-62
2023/10/14 03:42:51;;;;;;;0.82;0.47;;;;;;;24.96;44.44;101374.41;21174464;28;20039;-62
2023/10/14 03:52:57;;;;;;;1.10;0.50;;;;;;;24.97;44.44;101371.34;21174225;28;20456;-62
2023/10/14 04:02:58;;;;;;;0.70;0.70;;;;;;;24.96;44.35;101372.44;21173535;28;20093;-62
2023/10/14 04:13:04;;;;;;;0.95;0.60;;;;;;;24.97;44.53;101364.88;21170783;28;20036;-63
2023/10/14 04:23:18;;;;;;;0.70;0.70;;;;;;;24.97;44.22;101353.69;21172404;28;20498;-64
2023/10/14 04:33:34;;;;;;;0.82;0.65;;;;;;;24.98;44.33;101346.97;21170198;28;20048;-62
2023/10/14 04:44:22;;;;;;;1.45;0.70;;;;;;;24.89;44.55;101330.00;21168607;28;20036;-62
2023/10/14 04:54:00;;;;;;;0.63;0.60;;;;;;;24.95;44.60;101323.19;21161898;28;20036;-63
2023/10/14 05:04:01;;;;;;;1.02;0.65;;;;;;;24.92;44.37;101306.97;21168777;28;20044;-62
2023/10/14 05:14:08;;;;;;;0.60;0.60;;;;;;;24.92;44.61;101295.78;21167349;28;20055;-62
2023/10/14 05:24:11;;;;;;;1.10;0.60;;;;;;;24.76;44.46;101264.38;21167053;28;20044;-62
2023/10/14 05:34:13;;;;;;;0.60;0.60;;;;;;;24.92;44.40;101311.75;21165736;28;20482;-61
2023/10/14 05:44:15;;;;;;;0.70;0.50;;;;;;;24.91;44.43;101333.31;21164901;28;20040;-61
2023/10/14 05:54:16;;;;;;;0.65;0.60;;;;;;;24.90;44.32;101330.84;21165964;28;20048;-63
2023/10/14 06:04:18;;;;;;;1.10;1.00;;;;;;;24.87;44.34;101309.03;21163487;28;20356;-63
2023/10/14 06:14:19;;;;;;;1.08;0.68;;;;;;;24.90;44.42;101302.84;21162868;28;20108;-63
2023/10/14 06:24:20;;;;;;;0.60;0.60;;;;;;;24.82;44.50;101291.16;21161912;28;20040;-62
2023/10/14 06:34:22;;;;;;;0.60;0.60;;;;;;;24.88;44.35;101299.50;21161407;28;20470;-63
2023/10/14 06:44:29;;;;;;;0.50;0.50;;;;;;;24.88;44.33;101288.28;21161062;28;20032;-63
2023/10/14 06:54:36;;;;;;;0.60;0.60;;;;;;;24.88;44.25;101271.50;21159614;28;20042;-63
2023/10/14 07:04:40;;;;;;;0.50;0.50;;;;;;;24.87;44.44;101253.03;21159733;28;20126;-62
2023/10/14 07:14:44;;;;;;;0.50;0.50;;;;;;;24.86;44.38;101201.81;21159727;28;20402;-62
2023/10/14 07:24:45;;;;;;;0.50;0.50;;;;;;;24.85;44.15;101189.81;21160047;28;20036;-62
2023/10/14 07:34:53;;;;;;;0.70;0.68;;;;;;;24.84;44.35;101164.91;21158233;28;20039;-62
2023/10/14 07:44:57;;;;;;;0.50;0.50;;;;;;;24.79;44.17;101145.41;21158185;28;20135;-63
2023/10/14 07:54:59;;;;;;;0.52;0.52;;;;;;;24.83;44.24;101116.50;21158393;28;20379;-62
2023/10/14 08:05:05;;;;;;;0.52;0.52;;;;;;;24.82;44.13;101095.22;21157920;28;20047;-63
2023/10/14 08:15:10;;;;;;;0.73;0.68;;;;;;;24.81;44.31;101099.16;21171323;28;20035;-62
2023/10/14 08:25:12;;;;;;;0.68;0.68;;;;;;;24.81;44.26;101112.34;21171299;28;20035;-62
2023/10/14 08:35:19;;;;;;;0.60;0.60;;;;;;;24.79;44.18;101123.03;21171157;28;20475;-62
2023/10/14 08:45:25;;;;;;;1.03;0.63;;;;;;;24.72;44.16;101114.16;21171027;28;20035;-62
2023/10/14 08:55:32;;;;;;;0.70;0.70;;;;;;;24.77;44.07;101131.69;21169321;28;20280;-63
2023/10/14 09:05:38;;;;;;;0.80;0.70;;;;;;;24.72;44.08;101117.78;21168236;28;20040;-65
2023/10/14 09:15:42;;;;;;;0.47;0.47;;;;;;;24.73;44.18;101108.25;21167329;28;20044;-63
2023/10/14 09:25:55;;;;;;;0.80;0.80;;;;;;;24.75;44.16;101094.81;21166730;28;20050;-63
2023/10/14 09:35:59;;;;;;;1.15;1.02;;;;;;;24.73;43.92;101094.25;21166326;28;20050;-62
2023/10/14 09:46:04;;;;;;;1.38;0.95;;;;;;;24.73;44.01;101113.84;21165229;28;20035;-62
2023/10/14 09:56:13;;;;;;;0.70;0.70;;;;;;;24.69;44.26;101128.75;21163424;28;20042;-62
2023/10/14 10:06:20;;;;;;;1.05;0.90;;;;;;;24.71;44.11;101127.31;21163401;28;20040;-63
2023/10/14 10:16:21;;;;;;;0.70;0.70;;;;;;;24.70;44.13;101148.06;21162222;28;20050;-63
2023/10/14 10:26:24;;;;;;;1.73;0.80;;;;;;;24.68;44.12;101158.69;21162429;28;20095;-63
2023/10/14 10:36:33;;;;;;;0.70;0.70;;;;;;;24.55;44.27;101111.88;21160635;28;20048;-62
2023/10/14 10:46:50;;;;;;;0.70;0.70;;;;;;;24.61;44.00;101116.28;21160089;28;20078;-62
2023/10/14 10:57:00;;;;;;;0.80;0.77;;;;;;;24.67;43.98;101109.47;21160355;28;20046;-63
2023/10/14 11:07:03;;;;;;;0.90;0.77;;;;;;;24.67;43.91;101109.47;21159601;28;20046;-63
2023/10/14 11:17:13;;;;;;;0.77;0.75;;;;;;;24.63;44.11;101091.63;21157601;28;20478;-63
2023/10/14 11:27:14;;;;;;;0.80;0.73;;;;;;;24.65;44.11;101072.56;21158287;28;20375;-62
2023/10/14 11:37:16;;;;;;;0.57;0.57;;;;;;;24.63;44.12;101072.03;21158149;28;20036;-62
2023/10/14 11:47:17;;;;;;;1.00;0.80;;;;;;;24.54;44.03;101045.88;21170985;28;20068;-62
2023/10/14 11:57:19;;;;;;;0.98;0.70;;;;;;;24.59;43.88;101046.63;21173183;28;20104;-63
2023/10/14 12:07:21;;;;;;;4.63;1.00;;;;;;;24.60;43.79;101053.03;21172738;28;20116;-63
2023/10/14 12:17:23;;;;;;;0.70;0.70;;;;;;;24.59;43.94;101065.38;21172115;28;20073;-63
2023/10/14 12:27:28;;;;;;;1.10;0.77;;;;;;;24.58;43.94;101083.31;21171051;28;20047;-62
2023/10/14 12:37:30;;;;;;;0.45;0.45;;;;;;;24.57;43.86;101093.66;21170577;28;20044;-62
2023/10/14 12:47:32;;;;;;;0.65;0.65;;;;;;;24.56;44.05;101064.03;21169426;27;20108;-62
2023/10/14 12:57:34;;;;;;;0.63;0.63;;;;;;;24.55;44.03;101044.72;21167629;28;20042;-62
2023/10/14 13:07:35;;;;;;;0.82;0.82;;;;;;;24.54;43.80;101027.13;21167651;28;20040;-62
2023/10/14 13:17:38;;;;;;;0.63;0.50;;;;;;;24.50;43.84;101014.03;21166724;28;20043;-63
2023/10/14 13:27:40;;;;;;;0.93;0.70;;;;;;;24.51;43.82;101015.69;21166301;28;20039;-64
2023/10/14 13:37:44;;;;;;;1.05;0.70;;;;;;;24.50;43.83;100997.25;21165360;28;20044;-63
2023/10/14 13:47:48;;;;;;;0.77;0.70;;;;;;;24.50;43.94;101014.03;21165117;28;20027;-63
2023/10/14 13:57:51;;;;;;;0.68;0.68;;;;;;;24.38;43.98;100960.56;21164814;28;20402;-63
2023/10/14 14:07:55;;;;;;;0.95;0.68;;;;;;;24.48;43.70;100950.00;21163851;28;20028;-64
2023/10/14 14:17:58;;;;;;;0.80;0.60;;;;;;;24.40;44.09;100950.69;21162310;28;20044;-61
2023/10/14 14:28:03;;;;;;;0.93;0.70;;;;;;;24.48;43.87;100940.78;21161475;28;20035;-64
2023/10/14 14:38:05;;;;;;;0.85;0.77;;;;;;;24.40;43.83;100907.91;21161952;28;20050;-63
2023/10/14 14:48:09;;;;;;;0.88;0.68;;;;;;;24.46;43.96;100881.50;21160837;28;20362;-63
2023/10/14 14:58:14;;;;;;;1.38;0.70;;;;;;;24.44;43.83;100898.63;21160219;28;20047;-62
2023/10/14 15:08:18;;;;;;;1.08;0.75;;;;;;;24.46;44.00;100875.91;21159454;28;20390;-63
2023/10/14 15:18:22;;;;;;;0.98;0.90;;;;;;;24.43;43.89;100870.97;21166135;28;20089;-63
2023/10/14 15:28:23;;;;;;;0.77;0.77;;;;;;;24.42;44.05;100839.38;21176268;28;20035;-63
2023/10/14 15:38:25;;;;;;;0.55;0.52;;;;;;;24.43;43.97;100834.59;21175533;28;20112;-64
2023/10/14 15:48:30;;;;;;;1.00;0.70;;;;;;;24.21;44.11;100774.53;21175244;28;20085;-66
2023/10/14 15:58:32;;;;;;;0.70;0.55;;;;;;;24.37;43.98;100791.06;21173650;28;20039;-62
2023/10/14 16:08:36;;;;;;;0.90;0.70;;;;;;;24.38;43.93;100753.59;21173231;28;20044;-62
2023/10/14 16:18:40;;;;;;;0.70;0.70;;;;;;;24.17;43.88;100728.75;21172323;28;20055;-64
2023/10/14 16:28:42;;;;;;;0.60;0.60;;;;;;;24.36;43.91;100734.28;21168906;28;20109;-63
2023/10/14 16:38:43;;;;;;;1.10;0.80;;;;;;;24.34;43.99;100717.81;21170644;27;20543;-64
2023/10/14 16:48:45;;;;;;;1.15;0.77;;;;;;;24.31;44.14;100690.44;21170044;28;20043;-64
2023/10/14 16:58:46;;;;;;;0.90;0.80;;;;;;;24.31;43.97;100668.09;21169375;28;20478;-63
2023/10/14 17:08:47;;;;;;;1.02;0.90;;;;;;;24.31;44.12;100653.28;21168106;28;20047;-63
2023/10/14 17:18:49;;;;;;;1.67;0.90;;;;;;;24.29;44.22;100659.19;21167618;28;20040;-63
2023/10/14 17:28:50;;;;;;;1.00;0.82;;;;;;;24.25;44.05;100649.75;21167034;28;20419;-63
2023/10/14 17:38:52;;;;;;;1.55;0.90;;;;;;;24.29;44.17;100644.38;21165162;28;20382;-63
2023/10/14 17:48:54;;;;;;;1.25;0.98;;;;;;;24.24;44.28;100636.09;21164926;28;20031;-62
2023/10/14 17:58:57;;;;;;;2.33;1.00;;;;;;;24.25;44.10;100632.97;21163905;28;20100;-63
2023/10/14 18:08:58;;;;;;;1.05;0.80;;;;;;;24.24;44.06;100547.44;21162947;28;20047;-62
2023/10/14 18:18:59;;;;;;;1.15;1.00;;;;;;;24.23;44.15;100517.81;21162725;28;20051;-63
2023/10/14 18:29:01;;;;;;;1.55;0.88;;;;;;;24.21;44.41;100542.47;21161978;28;20108;-63
2023/10/14 18:39:02;;;;;;;0.82;0.80;;;;;;;24.19;44.27;100477.69;21161463;28;20031;-64
2023/10/14 18:49:04;;;;;;;1.23;0.88;;;;;;;24.18;44.25;100448.03;21160668;28;20040;-63
2023/10/14 18:59:06;;;;;;;1.00;0.90;;;;;;;24.17;44.45;100431.59;21160726;28;20039;-64
2023/10/14 19:09:08;;;;;;;1.05;0.80;;;;;;;24.13;44.26;100411.81;21160006;28;20470;-63
2023/10/14 19:19:10;;;;;;;0.98;0.82;;;;;;;24.12;44.56;100384.19;21159680;28;20043;-64
2023/10/14 19:29:12;;;;;;;1.00;0.70;;;;;;;24.15;44.21;100386.38;21159085;28;20035;-64
2023/10/14 19:39:13;;;;;;;3.97;0.90;;;;;;;24.12;44.48;100329.13;21158935;28;20040;-63
2023/10/14 19:49:16;;;;;;;0.95;0.60;;;;;;;24.11;44.30;100307.91;21158238;28;20440;-65
2023/10/14 19:59:18;;;;;;;1.88;1.00;;;;;;;24.10;44.42;100292.28;21157980;28;20073;-63
2023/10/14 20:09:19;;;;;;;1.33;0.90;;;;;;;24.07;44.55;100267.75;21170927;28;20047;-64
2023/10/14 20:19:21;;;;;;;1.15;0.88;;;;;;;24.10;44.41;100269.91;21171929;28;20040;-65
2023/10/14 20:29:23;;;;;;;1.40;0.77;;;;;;;24.08;44.53;100249.84;21171350;28;20052;-63
2023/10/14 20:39:32;;;;;;;1.67;1.00;;;;;;;24.03;44.49;100250.78;21170277;28;20453;-63
2023/10/14 20:49:33;;;;;;;1.15;0.98;;;;;;;24.06;44.56;100254.94;21169913;28;20047;-63
2023/10/14 20:59:36;;;;;;;1.60;1.00;;;;;;;24.02;44.75;100249.16;21168976;28;20091;-64
2023/10/14 21:09:40;;;;;;;0.88;0.73;;;;;;;23.93;44.74;100227.88;21168736;28;20044;-64
2023/10/14 21:19:42;;;;;;;0.68;0.68;;;;;;;24.01;44.79;100246.69;21167125;28;20466;-63
2023/10/14 21:29:46;;;;;;;1.42;0.80;;;;;;;23.90;44.52;100209.75;21167642;28;20081;-66
2023/10/14 21:39:47;;;;;;;0.98;0.73;;;;;;;23.80;44.67;100180.13;21167217;28;20036;-63
2023/10/14 21:49:49;;;;;;;1.90;0.98;;;;;;;23.93;44.65;100194.34;21164460;28;20034;-62
2023/10/14 21:59:50;;;;;;;0.85;0.60;;;;;;;23.92;44.67;100193.53;21163689;28;20054;-64
2023/10/14 22:09:51;;;;;;;0.80;0.70;;;;;;;23.92;44.78;100187.13;21161495;28;20039;-63
2023/10/14 22:19:53;;;;;;;1.05;0.70;;;;;;;23.91;44.86;100157.50;21161091;28;20039;-63
2023/10/14 22:29:59;;;;;;;0.70;0.70;;;;;;;23.90;44.73;100148.28;21161319;28;20048;-64
2023/10/14 22:40:03;;;;;;;0.82;0.82;;;;;;;23.83;44.81;100115.22;21160213;28;20036;-64
2023/10/14 22:50:09;;;;;;;1.60;0.73;;;;;;;23.84;44.88;100122.47;21159766;28;20470;-63
2023/10/14 23:00:14;;;;;;;0.80;0.70;;;;;;;23.88;44.74;100108.69;21160400;28;20039;-64
2023/10/14 23:10:21;;;;;;;0.80;0.73;;;;;;;23.87;44.76;100117.38;21160409;28;20368;-64
2023/10/14 23:20:26;;;;;;;1.42;0.80;;;;;;;23.88;44.85;100097.50;21159986;28;20028;-65
2023/10/14 23:30:29;;;;;;;0.82;0.57;;;;;;;23.87;44.82;100061.50;21159464;28;20043;-63
2023/10/14 23:40:30;;;;;;;1.63;0.80;;;;;;;23.85;44.71;100067.41;21167751;28;20543;-64
2023/10/14 23:50:35;;;;;;;0.47;0.45;;;;;;;23.85;44.78;100056.22;21175946;28;20038;-64
